Time;durP1;ratioP1;P1;durP2;ratioP2;P2;SDS_P1;SDS_P2;PMS_P1;PMS_P2;Temp;Humidity;BMP_temperature;BMP_pressure;BME280_temperature;BME280_humidity;BME280_pressure;Samples;Min_cycle;Max_cycle;Signal;HPM_P1;HPM_P2
2022/06/05 00:01:26;;;;;;;;;;;;;;;;;;5088866;28;19924;-83
2022/06/05 00:03:52;;;;;;;;;;;;;;;;;;5054861;28;19970;-83
2022/06/05 00:06:17;;;;;;;;;;;;;;;;;;5059268;28;19943;-84
2022/06/05 00:08:43;;;;;;;;;;;;;;;;;;5078337;28;19931;-84
2022/06/05 00:11:09;;;;;;;;;;;;;;;;;;5055117;28;19932;-82
2022/06/05 00:13:35;;;;;;;;;;;;;;;;;;5058650;28;20295;-84
2022/06/05 00:16:01;;;;;;;;;;;;;;;;;;5055593;28;20294;-83
2022/06/05 00:18:27;;;;;;;;;;;;;;;;;;5080434;28;19957;-84
2022/06/05 00:20:53;;;;;;;;;;;;;;;;;;5063561;28;21199;-84
2022/06/05 00:23:19;;;;;;;;;;;;;;;;;;5079060;28;19924;-84
2022/06/05 00:25:45;;;;;;;;;;;;;;;;;;5106720;28;20397;-84
2022/06/05 00:28:11;;;;;;;;;;;;;;;;;;5058044;28;19924;-84
2022/06/05 00:30:37;;;;;;;;;;;;;;;;;;5077429;28;19924;-83
2022/06/05 00:33:03;;;;;;;;;;;;;;;;;;5086692;28;19935;-84
2022/06/05 00:35:32;;;;;;;;;;;;;;;;;;5098074;28;20184;-84
2022/06/05 00:38:00;;;;;;;;;;;;;;;;;;5077775;28;19924;-84
2022/06/05 00:40:26;;;;;;;;;;;;;;;;;;5053319;28;20023;-83
2022/06/05 00:42:52;;;;;;;;;;;;;;;;;;5079387;28;20059;-83
2022/06/05 00:45:19;;;;;;;;;;;;;;;;;;5077460;28;19932;-84
2022/06/05 00:47:45;;;;;;;;;;;;;;;;;;5062708;28;20091;-84
2022/06/05 00:50:11;;;;;;;;;;;;;;;;;;5077401;28;19989;-83
2022/06/05 00:52:37;;;;;;;;;;;;;;;;;;5080781;28;19924;-84
2022/06/05 00:55:03;;;;;;;;;;;;;;;;;;5087095;28;19930;-83
2022/06/05 00:57:29;;;;;;;;;;;;;;;;;;5060096;28;19931;-84
2022/06/05 00:59:55;;;;;;;;;;;;;;;;;;5077876;28;20371;-83
2022/06/05 01:02:21;;;;;;;;;;;;;;;;;;5078282;28;19969;-84
2022/06/05 01:04:47;;;;;;;;;;;;;;;;;;5064357;28;19924;-84
2022/06/05 01:07:13;;;;;;;;;;;;;;;;;;5073095;28;19925;-83
2022/06/05 01:09:39;;;;;;;;;;;;;;;;;;5081117;28;20367;-84
2022/06/05 01:12:05;;;;;;;;;;;;;;;;;;5080947;28;19939;-82
2022/06/05 01:14:31;;;;;;;;;;;;;;;;;;5077518;28;20240;-84
2022/06/05 01:16:57;;;;;;;;;;;;;;;;;;5073758;28;19932;-84
2022/06/05 01:19:23;;;;;;;;;;;;;;;;;;5082242;28;19924;-85
2022/06/05 01:21:51;;;;;;;;;;;;;;;;;;5079458;28;19928;-84
2022/06/05 01:24:17;;;;;;;;;;;;;;;;;;5079780;28;19960;-83
2022/06/05 01:26:43;;;;;;;;;;;;;;;;;;5079200;28;20029;-84
2022/06/05 01:29:09;;;;;;;;;;;;;;;;;;5085778;28;20326;-83
2022/06/05 01:31:34;;;;;;;;;;;;;;;;;;5077493;28;20278;-85
2022/06/05 01:34:00;;;;;;;;;;;;;;;;;;5083458;28;19926;-84
2022/06/05 01:36:26;;;;;;;;;;;;;;;;;;5115815;27;20084;-85
2022/06/05 01:38:52;;;;;;;;;;;;;;;;;;5068575;28;19928;-84
2022/06/05 01:41:18;;;;;;;;;;;;;;;;;;5067028;28;19929;-83
2022/06/05 01:43:44;;;;;;;;;;;;;;;;;;5077591;28;19924;-83
2022/06/05 01:46:10;;;;;;;;;;;;;;;;;;5059007;28;19924;-83
2022/06/05 01:48:36;;;;;;;;;;;;;;;;;;5068127;28;19928;-84
2022/06/05 01:51:03;;;;;;;;;;;;;;;;;;5060854;28;19924;-84
2022/06/05 01:53:29;;;;;;;;;;;;;;;;;;5083774;28;19969;-83
2022/06/05 01:55:55;;;;;;;;;;;;;;;;;;5063594;28;19928;-83
2022/06/05 01:58:21;;;;;;;;;;;;;;;;;;5081181;28;19928;-84
2022/06/05 02:00:47;;;;;;;;;;;;;;;;;;5082342;28;20058;-83
2022/06/05 02:03:17;;;;;;;;;;;;;;;;;;5082019;28;19928;-83
2022/06/05 02:05:43;;;;;;;;;;;;;;;;;;5081783;28;19924;-85
2022/06/05 02:08:08;;;;;;;;;;;;;;;;;;5060501;28;19931;-84
2022/06/05 02:10:34;;;;;;;;;;;;;;;;;;5083247;28;19932;-85
2022/06/05 02:13:00;;;;;;;;;;;;;;;;;;5080008;28;19932;-83
2022/06/05 02:15:26;;;;;;;;;;;;;;;;;;5060710;28;19960;-84
2022/06/05 02:17:52;;;;;;;;;;;;;;;;;;5083807;28;20314;-84
2022/06/05 02:20:18;;;;;;;;;;;;;;;;;;5097224;28;19928;-83
2022/06/05 02:22:45;;;;;;;;;;;;;;;;;;5086770;28;19931;-85
2022/06/05 02:25:11;;;;;;;;;;;;;;;;;;5063633;28;19956;-84
2022/06/05 02:27:37;;;;;;;;;;;;;;;;;;5082732;28;19982;-84
2022/06/05 02:30:03;;;;;;;;;;;;;;;;;;5083877;28;19928;-85
2022/06/05 02:32:29;;;;;;;;;;;;;;;;;;5055902;28;20358;-86
2022/06/05 02:34:55;;;;;;;;;;;;;;;;;;5081495;28;20351;-84
2022/06/05 02:37:21;;;;;;;;;;;;;;;;;;5081319;28;20397;-84
2022/06/05 02:39:47;;;;;;;;;;;;;;;;;;5087900;28;19985;-83
2022/06/05 02:42:13;;;;;;;;;;;;;;;;;;5112350;27;19925;-83
2022/06/05 02:44:39;;;;;;;;;;;;;;;;;;5081554;28;19979;-85
2022/06/05 02:47:05;;;;;;;;;;;;;;;;;;5108203;27;19932;-85
2022/06/05 02:49:31;;;;;;;;;;;;;;;;;;5079321;28;20398;-85
2022/06/05 02:51:57;;;;;;;;;;;;;;;;;;5059715;28;19956;-84
2022/06/05 02:54:23;;;;;;;;;;;;;;;;;;5083798;28;19924;-83
2022/06/05 02:56:48;;;;;;;;;;;;;;;;;;5081910;28;19933;-84
2022/06/05 02:59:14;;;;;;;;;;;;;;;;;;5086841;28;20012;-83
2022/06/05 03:04:25;;;;;;;;;;;;;;;;;;5081920;28;19963;-83
2022/06/05 03:06:51;;;;;;;;;;;;;;;;;;5059628;28;19959;-84
2022/06/05 03:09:18;;;;;;;;;;;;;;;;;;5096920;28;19925;-83
2022/06/05 03:11:44;;;;;;;;;;;;;;;;;;5066675;28;19920;-85
2022/06/05 03:14:10;;;;;;;;;;;;;;;;;;5079679;28;20030;-84
2022/06/05 03:16:36;;;;;;;;;;;;;;;;;;5077749;28;19978;-84
2022/06/05 03:19:02;;;;;;;;;;;;;;;;;;5081279;28;19928;-84
2022/06/05 03:21:28;;;;;;;;;;;;;;;;;;5079541;28;19924;-85
2022/06/05 03:23:54;;;;;;;;;;;;;;;;;;5080183;28;19927;-86
2022/06/05 03:26:20;;;;;;;;;;;;;;;;;;5079358;28;19950;-85
2022/06/05 03:28:46;;;;;;;;;;;;;;;;;;5101005;28;20618;-83
2022/06/05 03:31:12;;;;;;;;;;;;;;;;;;5059595;28;19932;-84
2022/06/05 03:33:37;;;;;;;;;;;;;;;;;;5058067;28;19968;-84
2022/06/05 03:36:04;;;;;;;;;;;;;;;;;;5057269;28;19939;-86
2022/06/05 03:38:32;;;;;;;;;;;;;;;;;;5057663;28;19936;-85
2022/06/05 03:40:58;;;;;;;;;;;;;;;;;;5077396;28;19982;-85
2022/06/05 03:43:24;;;;;;;;;;;;;;;;;;5079744;28;19971;-84
2022/06/05 03:45:50;;;;;;;;;;;;;;;;;;5082073;28;19925;-85
2022/06/05 03:48:16;;;;;;;;;;;;;;;;;;5080365;28;20375;-85
2022/06/05 03:50:42;;;;;;;;;;;;;;;;;;5079517;28;19928;-84
2022/06/05 03:53:08;;;;;;;;;;;;;;;;;;5080665;28;19924;-86
2022/06/05 03:55:34;;;;;;;;;;;;;;;;;;5066417;28;20000;-84
2022/06/05 03:58:00;;;;;;;;;;;;;;;;;;5078418;28;19924;-82
2022/06/05 04:00:26;;;;;;;;;;;;;;;;;;5093466;28;19935;-83
2022/06/05 04:02:53;;;;;;;;;;;;;;;;;;5062440;28;19932;-83
2022/06/05 04:05:19;;;;;;;;;;;;;;;;;;5060711;28;19929;-84
2022/06/05 04:07:45;;;;;;;;;;;;;;;;;;5059198;28;19929;-84
2022/06/05 04:10:10;;;;;;;;;;;;;;;;;;5080851;28;20906;-84
2022/06/05 04:12:36;;;;;;;;;;;;;;;;;;5077021;28;20009;-85
2022/06/05 04:15:02;;;;;;;;;;;;;;;;;;5079630;28;19932;-85
2022/06/05 04:17:28;;;;;;;;;;;;;;;;;;5097201;28;19924;-82
2022/06/05 04:19:54;;;;;;;;;;;;;;;;;;5077081;28;19934;-83
2022/06/05 04:22:20;;;;;;;;;;;;;;;;;;5056514;28;19924;-85
2022/06/05 04:24:46;;;;;;;;;;;;;;;;;;5080157;28;19928;-85
2022/06/05 04:27:12;;;;;;;;;;;;;;;;;;5077454;28;19950;-84
2022/06/05 04:29:38;;;;;;;;;;;;;;;;;;5055876;28;19923;-84
2022/06/05 04:32:04;;;;;;;;;;;;;;;;;;5077618;28;19924;-83
2022/06/05 04:34:30;;;;;;;;;;;;;;;;;;5078836;28;20287;-83
2022/06/05 04:36:56;;;;;;;;;;;;;;;;;;5055257;28;20348;-85
2022/06/05 04:39:22;;;;;;;;;;;;;;;;;;5078210;28;20359;-83
2022/06/05 04:41:48;;;;;;;;;;;;;;;;;;5057359;28;19970;-84
2022/06/05 04:44:14;;;;;;;;;;;;;;;;;;5088460;28;20336;-84
2022/06/05 04:46:40;;;;;;;;;;;;;;;;;;5089914;28;19978;-85
2022/06/05 04:49:06;;;;;;;;;;;;;;;;;;5086102;28;19924;-83
2022/06/05 04:51:32;;;;;;;;;;;;;;;;;;5091033;28;19960;-84
2022/06/05 04:54:01;;;;;;;;;;;;;;;;;;5072385;28;19924;-85
2022/06/05 04:56:27;;;;;;;;;;;;;;;;;;5082753;28;19978;-83
2022/06/05 04:58:53;;;;;;;;;;;;;;;;;;5089548;28;20327;-83
2022/06/05 05:01:19;;;;;;;;;;;;;;;;;;5067963;28;20326;-83
2022/06/05 05:03:45;;;;;;;;;;;;;;;;;;5067810;28;19928;-84
2022/06/05 05:06:11;;;;;;;;;;;;;;;;;;5063943;28;19924;-84
2022/06/05 05:08:37;;;;;;;;;;;;;;;;;;5087772;28;19932;-85
2022/06/05 05:11:03;;;;;;;;;;;;;;;;;;5067215;28;20019;-84
2022/06/05 05:13:29;;;;;;;;;;;;;;;;;;5082161;28;19959;-86
2022/06/05 05:15:55;;;;;;;;;;;;;;;;;;5082861;28;19978;-85
2022/06/05 05:18:21;;;;;;;;;;;;;;;;;;5086780;28;20290;-86
2022/06/05 05:20:47;;;;;;;;;;;;;;;;;;5062006;28;20027;-84
2022/06/05 05:23:13;;;;;;;;;;;;;;;;;;5083747;28;20368;-83
2022/06/05 05:25:39;;;;;;;;;;;;;;;;;;5062477;28;20021;-85
2022/06/05 05:28:06;;;;;;;;;;;;;;;;;;5084359;28;19924;-85
2022/06/05 05:30:32;;;;;;;;;;;;;;;;;;5059803;28;19928;-86
2022/06/05 05:32:58;;;;;;;;;;;;;;;;;;5083174;28;19939;-83
2022/06/05 05:35:24;;;;;;;;;;;;;;;;;;5112837;27;19924;-84
2022/06/05 05:37:50;;;;;;;;;;;;;;;;;;5083493;28;19928;-84
2022/06/05 05:43:00;;;;;;;;;;;;;;;;;;5081207;28;20030;-85
2022/06/05 05:45:26;;;;;;;;;;;;;;;;;;5078588;28;20057;-83
2022/06/05 05:47:52;;;;;;;;;;;;;;;;;;5086371;28;19920;-84
2022/06/05 05:50:18;;;;;;;;;;;;;;;;;;5082457;28;19924;-84
2022/06/05 05:52:44;;;;;;;;;;;;;;;;;;5084504;28;19968;-84
2022/06/05 05:55:10;;;;;;;;;;;;;;;;;;5086354;28;19950;-83
2022/06/05 05:57:36;;;;;;;;;;;;;;;;;;5084894;28;19982;-84
2022/06/05 06:00:02;;;;;;;;;;;;;;;;;;5083300;28;19931;-83
2022/06/05 06:02:27;;;;;;;;;;;;;;;;;;5056752;28;19924;-84
2022/06/05 06:04:53;;;;;;;;;;;;;;;;;;5108417;27;20366;-83
2022/06/05 06:07:19;;;;;;;;;;;;;;;;;;5082275;28;19939;-83
2022/06/05 06:09:45;;;;;;;;;;;;;;;;;;5084150;28;19932;-84
2022/06/05 06:12:12;;;;;;;;;;;;;;;;;;5076586;28;19967;-85
2022/06/05 06:14:38;;;;;;;;;;;;;;;;;;5064742;28;19924;-84
2022/06/05 06:17:04;;;;;;;;;;;;;;;;;;5082148;28;19924;-85
2022/06/05 06:19:30;;;;;;;;;;;;;;;;;;5061728;28;19930;-84
2022/06/05 06:21:56;;;;;;;;;;;;;;;;;;5060571;28;19928;-84
2022/06/05 06:24:22;;;;;;;;;;;;;;;;;;5084258;28;19932;-86
2022/06/05 06:26:48;;;;;;;;;;;;;;;;;;5086228;28;20421;-85
2022/06/05 06:29:14;;;;;;;;;;;;;;;;;;5083120;28;20071;-84
2022/06/05 06:31:41;;;;;;;;;;;;;;;;;;5084161;28;19932;-85
2022/06/05 06:34:08;;;;;;;;;;;;;;;;;;5076190;28;20287;-83
2022/06/05 06:36:33;;;;;;;;;;;;;;;;;;5083876;28;19932;-82
2022/06/05 06:38:59;;;;;;;;;;;;;;;;;;5068354;28;19932;-82
2022/06/05 06:41:25;;;;;;;;;;;;;;;;;;5077527;28;19936;-81
2022/06/05 06:43:52;;;;;;;;;;;;;;;;;;5053780;28;20268;-81
2022/06/05 06:46:18;;;;;;;;;;;;;;;;;;5053852;28;19998;-92
2022/06/05 06:48:44;;;;;;;;;;;;;;;;;;5082475;28;20656;-90
2022/06/05 06:51:09;;;;;;;;;;;;;;;;;;5056260;28;19920;-85
2022/06/05 06:53:35;;;;;;;;;;;;;;;;;;5082336;28;20077;-85
2022/06/05 06:56:01;;;;;;;;;;;;;;;;;;5071040;28;19928;-83
2022/06/05 06:58:27;;;;;;;;;;;;;;;;;;5068814;28;19925;-83
2022/06/05 07:00:53;;;;;;;;;;;;;;;;;;5056671;28;19928;-82
2022/06/05 07:03:19;;;;;;;;;;;;;;;;;;5086221;28;20400;-82
2022/06/05 07:05:45;;;;;;;;;;;;;;;;;;5081929;28;20367;-83
2022/06/05 07:08:11;;;;;;;;;;;;;;;;;;5089259;28;20355;-83
2022/06/05 07:10:37;;;;;;;;;;;;;;;;;;5117936;27;20431;-82
2022/06/05 07:13:03;;;;;;;;;;;;;;;;;;5100935;28;19947;-87
2022/06/05 07:15:34;;;;;;;;;;;;;;;;;;5078125;27;20366;-83
2022/06/05 07:18:00;;;;;;;;;;;;;;;;;;5084429;28;20019;-84
2022/06/05 07:20:25;;;;;;;;;;;;;;;;;;5098198;28;19935;-80
2022/06/05 07:22:51;;;;;;;;;;;;;;;;;;5104089;28;20011;-86
2022/06/05 07:25:17;;;;;;;;;;;;;;;;;;5094193;28;20006;-81
2022/06/05 07:27:43;;;;;;;;;;;;;;;;;;5097383;28;19976;-83
2022/06/05 07:30:09;;;;;;;;;;;;;;;;;;5090257;28;19939;-83
2022/06/05 07:32:35;;;;;;;;;;;;;;;;;;5091892;28;20494;-83
2022/06/05 07:35:01;;;;;;;;;;;;;;;;;;5071095;28;19953;-82
2022/06/05 07:37:27;;;;;;;;;;;;;;;;;;5079963;28;19946;-83
2022/06/05 07:39:53;;;;;;;;;;;;;;;;;;5106595;28;19966;-82
2022/06/05 07:42:19;;;;;;;;;;;;;;;;;;5074561;28;19924;-83
2022/06/05 07:44:45;;;;;;;;;;;;;;;;;;5089180;27;19935;-82
2022/06/05 07:47:11;;;;;;;;;;;;;;;;;;5090717;27;19941;-88
2022/06/05 07:49:37;;;;;;;;;;;;;;;;;;5092921;27;19930;-85
2022/06/05 07:54:48;;;;;;;;;;;;;;;;;;5115373;27;19923;-88
2022/06/05 07:57:14;;;;;;;;;;;;;;;;;;5086092;28;19924;-85
2022/06/05 07:59:40;;;;;;;;;;;;;;;;;;5098588;28;19932;-84
2022/06/05 08:02:06;;;;;;;;;;;;;;;;;;5083034;28;19982;-87
2022/06/05 08:04:32;;;;;;;;;;;;;;;;;;5092587;28;19963;-86
2022/06/05 08:06:58;;;;;;;;;;;;;;;;;;5075108;28;19927;-86
2022/06/05 08:09:24;;;;;;;;;;;;;;;;;;5104221;28;19920;-86
2022/06/05 08:13:54;;;;;;;;;;;;;;;;;;5180445;27;19915;-80
2022/06/05 08:16:20;;;;;;;;;;;;;;;;;;5148179;27;19930;-84
2022/06/05 08:18:46;;;;;;;;;;;;;;;;;;5131020;27;19999;-83
2022/06/05 08:21:12;;;;;;;;;;;;;;;;;;5121767;27;19923;-81
2022/06/05 08:23:38;;;;;;;;;;;;;;;;;;5150982;27;20370;-80
2022/06/05 08:26:04;;;;;;;;;;;;;;;;;;5146697;27;19924;-80
2022/06/05 08:28:30;;;;;;;;;;;;;;;;;;5149672;27;19923;-78
2022/06/05 08:30:56;;;;;;;;;;;;;;;;;;5145112;27;19931;-77
2022/06/05 08:33:22;;;;;;;;;;;;;;;;;;5132296;27;19958;-78
2022/06/05 08:35:51;;;;;;;;;;;;;;;;;;5171261;27;19923;-76
2022/06/05 08:44:03;;;;;;;;;;;;;;;;;;5088242;28;20007;-77
2022/06/05 08:46:29;;;;;;;;;;;;;;;;;;5140099;27;20418;-79
2022/06/05 08:48:55;;;;;;;;;;;;;;;;;;5150723;27;19923;-86
2022/06/05 08:51:22;;;;;;;;;;;;;;;;;;5131794;27;19923;-89
2022/06/05 08:53:47;;;;;;;;;;;;;;;;;;5142748;27;19923;-91
2022/06/05 08:56:13;;;;;;;;;;;;;;;;;;5146407;27;19931;-90
2022/06/05 08:58:39;;;;;;;;;;;;;;;;;;5141179;27;19973;-92
2022/06/05 09:01:05;;;;;;;;;;;;;;;;;;5134349;27;19930;-90
2022/06/05 09:03:31;;;;;;;;;;;;;;;;;;5150067;27;19955;-92
2022/06/05 09:05:57;;;;;;;;;;;;;;;;;;5134228;27;20369;-89
2022/06/05 09:08:23;;;;;;;;;;;;;;;;;;5124061;27;19934;-87
2022/06/05 09:10:49;;;;;;;;;;;;;;;;;;5119288;27;19923;-93
2022/06/05 09:13:15;;;;;;;;;;;;;;;;;;5142296;27;19974;-95
2022/06/05 09:15:41;;;;;;;;;;;;;;;;;;5136921;27;20006;-95
2022/06/05 09:18:07;;;;;;;;;;;;;;;;;;5136840;27;20014;-93
2022/06/05 09:20:33;;;;;;;;;;;;;;;;;;5151559;27;19924;-92
2022/06/05 09:22:59;;;;;;;;;;;;;;;;;;5128314;27;19923;-92
2022/06/05 09:25:26;;;;;;;;;;;;;;;;;;5127887;27;19930;-89
2022/06/05 09:27:52;;;;;;;;;;;;;;;;;;5126989;27;19927;-93
2022/06/05 09:30:18;;;;;;;;;;;;;;;;;;5135404;27;19945;-94
2022/06/05 09:32:44;;;;;;;;;;;;;;;;;;5122667;27;19927;-92
2022/06/05 09:35:10;;;;;;;;;;;;;;;;;;5108177;27;20019;-93
2022/06/05 09:37:35;;;;;;;;;;;;;;;;;;5112840;27;20416;-89
2022/06/05 09:40:01;;;;;;;;;;;;;;;;;;5133607;27;20055;-89
2022/06/05 09:42:29;;;;;;;;;;;;;;;;;;5120465;27;19923;-88
2022/06/05 09:44:55;;;;;;;;;;;;;;;;;;5135518;27;20357;-86
2022/06/05 09:47:21;;;;;;;;;;;;;;;;;;5133781;27;20027;-82
2022/06/05 09:49:48;;;;;;;;;;;;;;;;;;5118746;27;20391;-78
2022/06/05 09:52:14;;;;;;;;;;;;;;;;;;5130704;27;19923;-84
2022/06/05 09:54:40;;;;;;;;;;;;;;;;;;5115000;27;19930;-84
2022/06/05 09:59:51;;;;;;;;;;;;;;;;;;5133166;27;19973;-84
2022/06/05 10:02:17;;;;;;;;;;;;;;;;;;5134050;27;19965;-77
2022/06/05 10:04:43;;;;;;;;;;;;;;;;;;5126771;27;19997;-80
2022/06/05 10:07:09;;;;;;;;;;;;;;;;;;5113800;27;20373;-79
2022/06/05 10:09:36;;;;;;;;;;;;;;;;;;5130321;27;20353;-79
2022/06/05 10:12:03;;;;;;;;;;;;;;;;;;5109676;27;19927;-76
2022/06/05 10:14:30;;;;;;;;;;;;;;;;;;5129266;27;19970;-75
2022/06/05 10:16:56;;;;;;;;;;;;;;;;;;5130524;27;19929;-75
2022/06/05 10:19:22;;;;;;;;;;;;;;;;;;5129002;27;20419;-75
2022/06/05 10:21:49;;;;;;;;;;;;;;;;;;5132508;27;20036;-76
2022/06/05 10:24:15;;;;;;;;;;;;;;;;;;5128035;27;19923;-76
2022/06/05 10:26:41;;;;;;;;;;;;;;;;;;5123542;27;19928;-77
2022/06/05 10:29:07;;;;;;;;;;;;;;;;;;5122055;27;19930;-80
2022/06/05 10:31:33;;;;;;;;;;;;;;;;;;5130792;27;19975;-77
2022/06/05 10:33:59;;;;;;;;;;;;;;;;;;5128974;27;20248;-79
2022/06/05 10:36:25;;;;;;;;;;;;;;;;;;5105786;27;19932;-75
2022/06/05 10:38:52;;;;;;;;;;;;;;;;;;5116824;27;19972;-77
2022/06/05 10:41:18;;;;;;;;;;;;;;;;;;5111144;27;19924;-77
2022/06/05 10:43:44;;;;;;;;;;;;;;;;;;5131384;27;20284;-82
2022/06/05 10:46:10;;;;;;;;;;;;;;;;;;5109850;27;19931;-78
2022/06/05 10:48:36;;;;;;;;;;;;;;;;;;5123269;27;19986;-80
2022/06/05 10:51:02;;;;;;;;;;;;;;;;;;5122875;27;19927;-78
2022/06/05 10:53:28;;;;;;;;;;;;;;;;;;5119148;27;19956;-78
2022/06/05 10:55:55;;;;;;;;;;;;;;;;;;5111000;27;19923;-77
2022/06/05 10:58:21;;;;;;;;;;;;;;;;;;5104432;27;19923;-77
2022/06/05 11:00:47;;;;;;;;;;;;;;;;;;5124441;27;20026;-79
2022/06/05 11:03:13;;;;;;;;;;;;;;;;;;5125583;27;19924;-83
2022/06/05 11:05:39;;;;;;;;;;;;;;;;;;5130186;27;19923;-79
2022/06/05 11:08:05;;;;;;;;;;;;;;;;;;5129162;27;19924;-79
2022/06/05 11:16:00;;;;;;;;;;;;;;;;;;5125618;27;19970;-79
2022/06/05 11:18:26;;;;;;;;;;;;;;;;;;5126881;27;19970;-76
2022/06/05 11:20:52;;;;;;;;;;;;;;;;;;5128746;27;19923;-76
2022/06/05 11:23:18;;;;;;;;;;;;;;;;;;5130358;27;19931;-77
2022/06/05 11:25:44;;;;;;;;;;;;;;;;;;5128262;27;19923;-77
2022/06/05 11:28:10;;;;;;;;;;;;;;;;;;5123691;27;19928;-84
2022/06/05 11:30:36;;;;;;;;;;;;;;;;;;5130724;27;20455;-83
2022/06/05 11:33:02;;;;;;;;;;;;;;;;;;5123182;27;19923;-81
2022/06/05 11:35:28;;;;;;;;;;;;;;;;;;5112723;27;20524;-82
2022/06/05 11:37:54;;;;;;;;;;;;;;;;;;5112144;28;19935;-78
2022/06/05 11:40:20;;;;;;;;;;;;;;;;;;5128287;27;20162;-83
2022/06/05 11:42:46;;;;;;;;;;;;;;;;;;5130698;27;19946;-80
2022/06/05 11:45:12;;;;;;;;;;;;;;;;;;5131055;27;19923;-82
2022/06/05 11:47:38;;;;;;;;;;;;;;;;;;5110920;27;20005;-76
2022/06/05 11:50:04;;;;;;;;;;;;;;;;;;5122282;27;20022;-79
2022/06/05 11:52:30;;;;;;;;;;;;;;;;;;5118984;27;19924;-79
2022/06/05 11:54:57;;;;;;;;;;;;;;;;;;5114843;27;19974;-80
2022/06/05 11:57:23;;;;;;;;;;;;;;;;;;5116827;27;20327;-80
2022/06/05 11:59:49;;;;;;;;;;;;;;;;;;5131868;27;19928;-79
2022/06/05 12:02:15;;;;;;;;;;;;;;;;;;5127286;27;19924;-79
2022/06/05 12:04:41;;;;;;;;;;;;;;;;;;5121902;27;19923;-80
2022/06/05 12:07:07;;;;;;;;;;;;;;;;;;5111025;28;20010;-79
2022/06/05 12:09:33;;;;;;;;;;;;;;;;;;5125005;27;20002;-79
2022/06/05 12:11:58;;;;;;;;;;;;;;;;;;5129906;28;19923;-80
2022/06/05 12:14:24;;;;;;;;;;;;;;;;;;5124661;28;19930;-79
2022/06/05 12:16:50;;;;;;;;;;;;;;;;;;5131989;28;19972;-79
2022/06/05 12:19:16;;;;;;;;;;;;;;;;;;5121776;28;20374;-79
2022/06/05 12:21:42;;;;;;;;;;;;;;;;;;5130824;28;19923;-79
2022/06/05 12:24:08;;;;;;;;;;;;;;;;;;5112694;28;20389;-79
2022/06/05 12:26:34;;;;;;;;;;;;;;;;;;5121069;28;19972;-79
2022/06/05 12:29:00;;;;;;;;;;;;;;;;;;5123033;28;20370;-79
2022/06/05 12:31:26;;;;;;;;;;;;;;;;;;5115067;28;20054;-80
2022/06/05 12:33:52;;;;;;;;;;;;;;;;;;5117659;28;19923;-79
2022/06/05 12:36:18;;;;;;;;;;;;;;;;;;5132845;27;20255;-79
2022/06/05 12:38:44;;;;;;;;;;;;;;;;;;5112163;28;20313;-79
2022/06/05 12:41:10;;;;;;;;;;;;;;;;;;5127690;28;20327;-79
2022/06/05 12:43:36;;;;;;;;;;;;;;;;;;5114807;28;20486;-79
2022/06/05 12:46:02;;;;;;;;;;;;;;;;;;5123504;28;20020;-78
2022/06/05 12:48:28;;;;;;;;;;;;;;;;;;5123811;28;19928;-79
2022/06/05 12:50:54;;;;;;;;;;;;;;;;;;5126747;28;19923;-79
2022/06/05 12:53:20;;;;;;;;;;;;;;;;;;5119848;28;19946;-79
2022/06/05 12:55:46;;;;;;;;;;;;;;;;;;5113938;28;20349;-79
2022/06/05 12:58:12;;;;;;;;;;;;;;;;;;5119130;27;19923;-80
2022/06/05 13:00:38;;;;;;;;;;;;;;;;;;5132409;27;19983;-79
2022/06/05 13:03:04;;;;;;;;;;;;;;;;;;5116808;27;20405;-80
2022/06/05 13:05:32;;;;;;;;;;;;;;;;;;5124967;27;20044;-80
2022/06/05 13:07:58;;;;;;;;;;;;;;;;;;5127187;27;19928;-80
2022/06/05 13:10:24;;;;;;;;;;;;;;;;;;5132842;27;19924;-79
2022/06/05 13:12:50;;;;;;;;;;;;;;;;;;5115099;27;19927;-79
2022/06/05 13:15:16;;;;;;;;;;;;;;;;;;5120710;27;19923;-80
2022/06/05 13:17:42;;;;;;;;;;;;;;;;;;5122772;27;20358;-80
2022/06/05 13:20:08;;;;;;;;;;;;;;;;;;5128479;27;21231;-79
2022/06/05 13:22:34;;;;;;;;;;;;;;;;;;5124979;27;19967;-80
2022/06/05 13:25:01;;;;;;;;;;;;;;;;;;5124007;27;20291;-80
2022/06/05 13:27:27;;;;;;;;;;;;;;;;;;5104630;28;19935;-80
2022/06/05 13:29:53;;;;;;;;;;;;;;;;;;5126122;27;19930;-80
2022/06/05 13:32:19;;;;;;;;;;;;;;;;;;5120054;27;20274;-79
2022/06/05 13:34:45;;;;;;;;;;;;;;;;;;5116362;27;20022;-79
2022/06/05 13:37:11;;;;;;;;;;;;;;;;;;5120356;27;19924;-79
2022/06/05 13:39:37;;;;;;;;;;;;;;;;;;5132661;27;19982;-80
2022/06/05 13:42:03;;;;;;;;;;;;;;;;;;5101518;28;19924;-79
2022/06/05 13:44:29;;;;;;;;;;;;;;;;;;5123871;27;19947;-79
2022/06/05 13:46:56;;;;;;;;;;;;;;;;;;5122688;27;19984;-78
2022/06/05 13:49:22;;;;;;;;;;;;;;;;;;5120425;27;19924;-79
2022/06/05 13:51:48;;;;;;;;;;;;;;;;;;5117914;27;20006;-79
2022/06/05 13:54:16;;;;;;;;;;;;;;;;;;5125047;27;19963;-79
2022/06/05 13:56:42;;;;;;;;;;;;;;;;;;5129744;27;19923;-80
2022/06/05 13:59:08;;;;;;;;;;;;;;;;;;5117687;27;20367;-79
2022/06/05 14:01:36;;;;;;;;;;;;;;;;;;5124939;27;19923;-79
2022/06/05 14:04:02;;;;;;;;;;;;;;;;;;5131333;27;20301;-79
2022/06/05 14:06:28;;;;;;;;;;;;;;;;;;5124911;27;19923;-79
2022/06/05 14:08:54;;;;;;;;;;;;;;;;;;5115206;27;20401;-78
2022/06/05 14:11:20;;;;;;;;;;;;;;;;;;5136774;27;20023;-79
2022/06/05 14:13:46;;;;;;;;;;;;;;;;;;5131533;27;19924;-79
2022/06/05 14:16:12;;;;;;;;;;;;;;;;;;5119998;27;19948;-79
2022/06/05 14:18:40;;;;;;;;;;;;;;;;;;5118110;27;20018;-79
2022/06/05 14:21:06;;;;;;;;;;;;;;;;;;5132350;27;20029;-80
2022/06/05 14:23:32;;;;;;;;;;;;;;;;;;5114418;27;19930;-79
2022/06/05 14:25:58;;;;;;;;;;;;;;;;;;5129223;27;20019;-79
2022/06/05 14:28:25;;;;;;;;;;;;;;;;;;5113954;27;20354;-79
2022/06/05 14:30:51;;;;;;;;;;;;;;;;;;5131885;27;20277;-79
2022/06/05 14:33:17;;;;;;;;;;;;;;;;;;5118603;27;19971;-80
2022/06/05 14:35:43;;;;;;;;;;;;;;;;;;5114189;27;19967;-80
2022/06/05 14:38:09;;;;;;;;;;;;;;;;;;5122848;27;20658;-81
2022/06/05 14:40:35;;;;;;;;;;;;;;;;;;5117484;27;19959;-79
2022/06/05 14:43:01;;;;;;;;;;;;;;;;;;5117031;27;19983;-79
2022/06/05 14:45:27;;;;;;;;;;;;;;;;;;5123020;27;19953;-79
2022/06/05 14:47:53;;;;;;;;;;;;;;;;;;5115915;27;19924;-79
2022/06/05 14:50:19;;;;;;;;;;;;;;;;;;5130015;27;19977;-79
2022/06/05 14:52:45;;;;;;;;;;;;;;;;;;5120639;27;19935;-79
2022/06/05 14:57:56;;;;;;;;;;;;;;;;;;5112956;28;19924;-79
2022/06/05 15:00:22;;;;;;;;;;;;;;;;;;5117406;27;20373;-79
2022/06/05 15:02:48;;;;;;;;;;;;;;;;;;5120358;27;19974;-79
2022/06/05 15:05:14;;;;;;;;;;;;;;;;;;5115623;27;20710;-79
2022/06/05 15:07:40;;;;;;;;;;;;;;;;;;5120517;27;19924;-79
2022/06/05 15:10:06;;;;;;;;;;;;;;;;;;5114975;27;20365;-79
2022/06/05 15:12:32;;;;;;;;;;;;;;;;;;5130079;27;19933;-79
2022/06/05 15:14:58;;;;;;;;;;;;;;;;;;5128497;27;19975;-79
2022/06/05 15:17:24;;;;;;;;;;;;;;;;;;5128687;27;19931;-80
2022/06/05 15:19:50;;;;;;;;;;;;;;;;;;5113233;27;20017;-81
2022/06/05 15:22:15;;;;;;;;;;;;;;;;;;5126547;27;20330;-82
2022/06/05 15:24:41;;;;;;;;;;;;;;;;;;5118565;27;19923;-83
2022/06/05 15:27:07;;;;;;;;;;;;;;;;;;5104535;27;19975;-81
2022/06/05 15:29:33;;;;;;;;;;;;;;;;;;5123410;27;19931;-86
2022/06/05 15:31:59;;;;;;;;;;;;;;;;;;5126899;27;19924;-82
2022/06/05 15:34:25;;;;;;;;;;;;;;;;;;5107487;27;19989;-82
2022/06/05 15:36:51;;;;;;;;;;;;;;;;;;5105310;28;19928;-80
2022/06/05 15:39:17;;;;;;;;;;;;;;;;;;5110796;28;19927;-82
2022/06/05 15:41:43;;;;;;;;;;;;;;;;;;5117268;27;19928;-83
2022/06/05 15:44:09;;;;;;;;;;;;;;;;;;5122380;27;19923;-82
2022/06/05 15:46:35;;;;;;;;;;;;;;;;;;5108356;28;19946;-82
2022/06/05 15:49:01;;;;;;;;;;;;;;;;;;5116613;27;19924;-81
2022/06/05 15:51:27;;;;;;;;;;;;;;;;;;5100831;27;20529;-82
2022/06/05 15:53:53;;;;;;;;;;;;;;;;;;5128498;27;19930;-82
2022/06/05 15:56:19;;;;;;;;;;;;;;;;;;5111446;28;20370;-82
2022/06/05 15:58:46;;;;;;;;;;;;;;;;;;5117781;27;19923;-82
2022/06/05 16:01:12;;;;;;;;;;;;;;;;;;5118798;27;19923;-81
2022/06/05 16:03:38;;;;;;;;;;;;;;;;;;5115190;27;19931;-80
2022/06/05 16:06:04;;;;;;;;;;;;;;;;;;5110287;27;19927;-80
2022/06/05 16:08:30;;;;;;;;;;;;;;;;;;5120171;27;19934;-81
2022/06/05 16:10:56;;;;;;;;;;;;;;;;;;5124907;28;20033;-82
2022/06/05 16:13:22;;;;;;;;;;;;;;;;;;5110331;28;19924;-81
2022/06/05 16:15:48;;;;;;;;;;;;;;;;;;5110474;28;19923;-81
2022/06/05 16:18:14;;;;;;;;;;;;;;;;;;5108228;28;19927;-82
2022/06/05 16:20:41;;;;;;;;;;;;;;;;;;5116657;28;20371;-81
2022/06/05 16:23:07;;;;;;;;;;;;;;;;;;5110976;28;19924;-82
2022/06/05 16:25:33;;;;;;;;;;;;;;;;;;5109783;28;20390;-85
2022/06/05 16:27:59;;;;;;;;;;;;;;;;;;5108944;28;20014;-82
2022/06/05 16:30:25;;;;;;;;;;;;;;;;;;5121341;27;19938;-82
2022/06/05 16:32:50;;;;;;;;;;;;;;;;;;5111448;27;19923;-81
2022/06/05 16:38:04;;;;;;;;;;;;;;;;;;5118784;27;19934;-84
2022/06/05 16:40:30;;;;;;;;;;;;;;;;;;5110530;28;19924;-83
2022/06/05 16:42:56;;;;;;;;;;;;;;;;;;5124339;27;19924;-83
2022/06/05 16:45:22;;;;;;;;;;;;;;;;;;5119917;27;19984;-82
2022/06/05 16:47:53;;;;;;;;;;;;;;;;;;5126579;27;19946;-81
2022/06/05 16:50:21;;;;;;;;;;;;;;;;;;5115558;27;19929;-82
2022/06/05 16:52:47;;;;;;;;;;;;;;;;;;5121180;27;20377;-82
2022/06/05 16:55:15;;;;;;;;;;;;;;;;;;5114729;27;20290;-83
2022/06/05 16:57:41;;;;;;;;;;;;;;;;;;5116300;27;19927;-82
2022/06/05 17:00:07;;;;;;;;;;;;;;;;;;5128840;27;19968;-82
2022/06/05 17:02:33;;;;;;;;;;;;;;;;;;5127028;27;20071;-83
2022/06/05 17:04:59;;;;;;;;;;;;;;;;;;5111006;27;19978;-83
2022/06/05 17:07:25;;;;;;;;;;;;;;;;;;5114569;28;19923;-84